sensor_id;sensor_type;location;lat;lon;timestamp;P1;P2;P0
42410;PMS5003;28056;51.112;0.984;2023-08-17T00:04:53;22;20;
42410;PMS5003;28056;51.112;0.984;2023-08-17T00:07:20;26;25;
42410;PMS5003;28056;51.112;0.984;2023-08-17T00:09:47;21;21;
42410;PMS5003;28056;51.112;0.984;2023-08-17T00:12:14;24;23;
42410;PMS5003;28056;51.112;0.984;2023-08-17T00:14:42;22;22;
42410;PMS5003;28056;51.112;0.984;2023-08-17T00:17:09;21;21;
42410;PMS5003;28056;51.112;0.984;2023-08-17T00:19:36;27;24;
42410;PMS5003;28056;51.112;0.984;2023-08-17T00:22:04;22;19;
42410;PMS5003;28056;51.112;0.984;2023-08-17T00:24:31;25;22;
42410;PMS5003;28056;51.112;0.984;2023-08-17T00:26:58;24;21;
42410;PMS5003;28056;51.112;0.984;2023-08-17T00:29:26;33;21;
42410;PMS5003;28056;51.112;0.984;2023-08-17T00:31:53;22;22;
42410;PMS5003;28056;51.112;0.984;2023-08-17T00:34:21;21;21;
42410;PMS5003;28056;51.112;0.984;2023-08-17T00:36:48;25;22;
42410;PMS5003;28056;51.112;0.984;2023-08-17T00:39:16;26;23;
42410;PMS5003;28056;51.112;0.984;2023-08-17T00:41:43;22;20;
42410;PMS5003;28056;51.112;0.984;2023-08-17T00:44:11;20;19;
42410;PMS5003;28056;51.112;0.984;2023-08-17T00:46:39;17;17;
42410;PMS5003;28056;51.112;0.984;2023-08-17T00:49:06;20;19;
42410;PMS5003;28056;51.112;0.984;2023-08-17T00:51:33;22;21;
42410;PMS5003;28056;51.112;0.984;2023-08-17T00:54:01;16;16;
42410;PMS5003;28056;51.112;0.984;2023-08-17T00:56:30;23;19;
42410;PMS5003;28056;51.112;0.984;2023-08-17T00:58:57;19;18;
42410;PMS5003;28056;51.112;0.984;2023-08-17T01:01:25;18;17;
42410;PMS5003;28056;51.112;0.984;2023-08-17T01:03:52;21;18;
42410;PMS5003;28056;51.112;0.984;2023-08-17T01:06:20;21;19;
42410;PMS5003;28056;51.112;0.984;2023-08-17T01:08:47;22;20;
42410;PMS5003;28056;51.112;0.984;2023-08-17T01:11:18;22;20;
42410;PMS5003;28056;51.112;0.984;2023-08-17T01:13:53;17;16;
42410;PMS5003;28056;51.112;0.984;2023-08-17T01:16:29;21;19;
42410;PMS5003;28056;51.112;0.984;2023-08-17T01:19:00;20;18;
42410;PMS5003;28056;51.112;0.984;2023-08-17T01:21:35;24;19;
42410;PMS5003;28056;51.112;0.984;2023-08-17T01:24:08;18;16;
42410;PMS5003;28056;51.112;0.984;2023-08-17T01:26:37;21;21;
42410;PMS5003;28056;51.112;0.984;2023-08-17T01:29:05;21;21;
42410;PMS5003;28056;51.112;0.984;2023-08-17T01:31:34;17;17;
42410;PMS5003;28056;51.112;0.984;2023-08-17T01:34:08;18;17;
42410;PMS5003;28056;51.112;0.984;2023-08-17T01:36:42;19;18;
42410;PMS5003;28056;51.112;0.984;2023-08-17T01:39:17;19;19;
42410;PMS5003;28056;51.112;0.984;2023-08-17T01:41:46;23;20;
42410;PMS5003;28056;51.112;0.984;2023-08-17T01:44:14;20;18;
42410;PMS5003;28056;51.112;0.984;2023-08-17T01:46:42;17;17;
42410;PMS5003;28056;51.112;0.984;2023-08-17T01:49:09;19;16;
42410;PMS5003;28056;51.112;0.984;2023-08-17T01:51:37;24;21;
42410;PMS5003;28056;51.112;0.984;2023-08-17T01:54:04;20;20;
42410;PMS5003;28056;51.112;0.984;2023-08-17T01:56:32;20;20;
42410;PMS5003;28056;51.112;0.984;2023-08-17T01:58:59;19;19;
42410;PMS5003;28056;51.112;0.984;2023-08-17T02:01:30;20;18;
42410;PMS5003;28056;51.112;0.984;2023-08-17T02:03:57;21;19;
42410;PMS5003;28056;51.112;0.984;2023-08-17T02:06:25;18;16;
42410;PMS5003;28056;51.112;0.984;2023-08-17T02:08:52;17;16;
42410;PMS5003;28056;51.112;0.984;2023-08-17T02:11:20;18;17;
42410;PMS5003;28056;51.112;0.984;2023-08-17T02:13:47;21;21;
42410;PMS5003;28056;51.112;0.984;2023-08-17T02:16:14;24;21;
42410;PMS5003;28056;51.112;0.984;2023-08-17T02:18:42;19;19;
42410;PMS5003;28056;51.112;0.984;2023-08-17T02:21:09;20;20;
42410;PMS5003;28056;51.112;0.984;2023-08-17T02:23:37;19;17;
42410;PMS5003;28056;51.112;0.984;2023-08-17T02:26:04;16;15;
42410;PMS5003;28056;51.112;0.984;2023-08-17T02:28:32;15;15;
42410;PMS5003;28056;51.112;0.984;2023-08-17T02:30:59;19;16;
42410;PMS5003;28056;51.112;0.984;2023-08-17T02:33:26;20;17;
42410;PMS5003;28056;51.112;0.984;2023-08-17T02:35:54;21;17;
42410;PMS5003;28056;51.112;0.984;2023-08-17T02:38:22;18;17;
42410;PMS5003;28056;51.112;0.984;2023-08-17T02:40:49;18;18;
42410;PMS5003;28056;51.112;0.984;2023-08-17T02:43:17;16;15;
42410;PMS5003;28056;51.112;0.984;2023-08-17T02:45:45;18;16;
42410;PMS5003;28056;51.112;0.984;2023-08-17T02:48:12;19;18;
42410;PMS5003;28056;51.112;0.984;2023-08-17T02:50:39;18;16;
42410;PMS5003;28056;51.112;0.984;2023-08-17T02:53:06;14;14;
42410;PMS5003;28056;51.112;0.984;2023-08-17T02:55:34;18;16;
42410;PMS5003;28056;51.112;0.984;2023-08-17T02:58:01;16;16;
42410;PMS5003;28056;51.112;0.984;2023-08-17T03:00:29;15;15;
42410;PMS5003;28056;51.112;0.984;2023-08-17T03:02:57;17;17;
42410;PMS5003;28056;51.112;0.984;2023-08-17T03:05:24;19;19;
42410;PMS5003;28056;51.112;0.984;2023-08-17T03:07:52;19;17;
42410;PMS5003;28056;51.112;0.984;2023-08-17T03:10:19;18;15;
42410;PMS5003;28056;51.112;0.984;2023-08-17T03:12:47;18;15;
42410;PMS5003;28056;51.112;0.984;2023-08-17T03:15:14;16;16;
42410;PMS5003;28056;51.112;0.984;2023-08-17T03:17:42;17;15;
42410;PMS5003;28056;51.112;0.984;2023-08-17T03:20:10;23;20;
42410;PMS5003;28056;51.112;0.984;2023-08-17T03:22:38;15;14;
42410;PMS5003;28056;51.112;0.984;2023-08-17T03:25:06;21;19;
42410;PMS5003;28056;51.112;0.984;2023-08-17T03:27:34;17;17;
42410;PMS5003;28056;51.112;0.984;2023-08-17T03:30:01;16;15;
42410;PMS5003;28056;51.112;0.984;2023-08-17T03:32:29;18;18;
42410;PMS5003;28056;51.112;0.984;2023-08-17T03:34:57;10;10;
42410;PMS5003;28056;51.112;0.984;2023-08-17T03:37:24;18;17;
42410;PMS5003;28056;51.112;0.984;2023-08-17T03:39:52;16;16;
42410;PMS5003;28056;51.112;0.984;2023-08-17T03:42:20;23;18;
42410;PMS5003;28056;51.112;0.984;2023-08-17T03:44:47;13;13;
42410;PMS5003;28056;51.112;0.984;2023-08-17T03:47:15;17;16;
42410;PMS5003;28056;51.112;0.984;2023-08-17T03:49:42;18;17;
42410;PMS5003;28056;51.112;0.984;2023-08-17T03:52:10;16;15;
42410;PMS5003;28056;51.112;0.984;2023-08-17T03:54:37;17;16;
42410;PMS5003;28056;51.112;0.984;2023-08-17T03:57:05;13;12;
42410;PMS5003;28056;51.112;0.984;2023-08-17T03:59:32;13;13;
42410;PMS5003;28056;51.112;0.984;2023-08-17T04:02:00;15;15;
42410;PMS5003;28056;51.112;0.984;2023-08-17T04:04:27;12;12;
42410;PMS5003;28056;51.112;0.984;2023-08-17T04:06:55;15;15;
42410;PMS5003;28056;51.112;0.984;2023-08-17T04:09:22;17;15;
42410;PMS5003;28056;51.112;0.984;2023-08-17T04:11:50;17;15;
42410;PMS5003;28056;51.112;0.984;2023-08-17T04:14:17;17;16;
42410;PMS5003;28056;51.112;0.984;2023-08-17T04:16:45;15;13;
42410;PMS5003;28056;51.112;0.984;2023-08-17T04:19:12;13;12;
42410;PMS5003;28056;51.112;0.984;2023-08-17T04:21:40;14;14;
42410;PMS5003;28056;51.112;0.984;2023-08-17T04:24:08;15;13;
42410;PMS5003;28056;51.112;0.984;2023-08-17T04:26:35;18;15;
42410;PMS5003;28056;51.112;0.984;2023-08-17T04:29:03;19;19;
42410;PMS5003;28056;51.112;0.984;2023-08-17T04:31:30;20;16;
42410;PMS5003;28056;51.112;0.984;2023-08-17T04:33:57;20;17;
42410;PMS5003;28056;51.112;0.984;2023-08-17T04:36:25;20;17;
42410;PMS5003;28056;51.112;0.984;2023-08-17T04:38:53;19;18;
42410;PMS5003;28056;51.112;0.984;2023-08-17T04:41:20;15;15;
42410;PMS5003;28056;51.112;0.984;2023-08-17T04:43:48;20;15;
42410;PMS5003;28056;51.112;0.984;2023-08-17T04:46:15;17;16;
42410;PMS5003;28056;51.112;0.984;2023-08-17T04:48:43;20;17;
42410;PMS5003;28056;51.112;0.984;2023-08-17T04:51:11;21;16;
42410;PMS5003;28056;51.112;0.984;2023-08-17T04:53:38;18;16;
42410;PMS5003;28056;51.112;0.984;2023-08-17T04:56:06;20;18;
42410;PMS5003;28056;51.112;0.984;2023-08-17T04:58:34;18;15;
42410;PMS5003;28056;51.112;0.984;2023-08-17T05:01:01;19;18;
42410;PMS5003;28056;51.112;0.984;2023-08-17T05:03:28;15;15;
42410;PMS5003;28056;51.112;0.984;2023-08-17T05:05:56;14;14;
42410;PMS5003;28056;51.112;0.984;2023-08-17T05:08:23;14;13;
42410;PMS5003;28056;51.112;0.984;2023-08-17T05:10:51;16;16;
42410;PMS5003;28056;51.112;0.984;2023-08-17T05:13:19;17;13;
42410;PMS5003;28056;51.112;0.984;2023-08-17T05:15:46;16;14;
42410;PMS5003;28056;51.112;0.984;2023-08-17T05:18:13;18;15;
42410;PMS5003;28056;51.112;0.984;2023-08-17T05:20:41;13;13;
42410;PMS5003;28056;51.112;0.984;2023-08-17T05:23:08;12;12;
42410;PMS5003;28056;51.112;0.984;2023-08-17T05:25:36;10;10;
42410;PMS5003;28056;51.112;0.984;2023-08-17T05:28:04;10;9;
42410;PMS5003;28056;51.112;0.984;2023-08-17T05:30:32;14;12;
42410;PMS5003;28056;51.112;0.984;2023-08-17T05:33:00;12;10;
42410;PMS5003;28056;51.112;0.984;2023-08-17T05:35:27;13;12;
42410;PMS5003;28056;51.112;0.984;2023-08-17T05:37:54;10;10;
42410;PMS5003;28056;51.112;0.984;2023-08-17T05:40:22;10;8;
42410;PMS5003;28056;51.112;0.984;2023-08-17T05:42:49;10;8;
42410;PMS5003;28056;51.112;0.984;2023-08-17T05:45:17;16;13;
42410;PMS5003;28056;51.112;0.984;2023-08-17T05:47:44;9;9;
42410;PMS5003;28056;51.112;0.984;2023-08-17T05:50:12;9;9;
42410;PMS5003;28056;51.112;0.984;2023-08-17T05:52:40;15;13;
42410;PMS5003;28056;51.112;0.984;2023-08-17T05:55:07;8;8;
42410;PMS5003;28056;51.112;0.984;2023-08-17T05:57:35;8;7;
42410;PMS5003;28056;51.112;0.984;2023-08-17T06:00:02;12;10;
42410;PMS5003;28056;51.112;0.984;2023-08-17T06:02:30;9;9;
42410;PMS5003;28056;51.112;0.984;2023-08-17T06:04:58;11;9;
42410;PMS5003;28056;51.112;0.984;2023-08-17T06:07:26;12;12;
42410;PMS5003;28056;51.112;0.984;2023-08-17T06:09:53;10;9;
42410;PMS5003;28056;51.112;0.984;2023-08-17T06:12:21;13;12;
42410;PMS5003;28056;51.112;0.984;2023-08-17T06:14:48;13;9;
42410;PMS5003;28056;51.112;0.984;2023-08-17T06:17:16;9;9;
42410;PMS5003;28056;51.112;0.984;2023-08-17T06:19:44;11;10;
42410;PMS5003;28056;51.112;0.984;2023-08-17T06:22:11;10;8;
42410;PMS5003;28056;51.112;0.984;2023-08-17T06:24:39;15;10;
42410;PMS5003;28056;51.112;0.984;2023-08-17T06:27:06;12;9;
42410;PMS5003;28056;51.112;0.984;2023-08-17T06:29:34;9;9;
42410;PMS5003;28056;51.112;0.984;2023-08-17T06:32:02;11;10;
42410;PMS5003;28056;51.112;0.984;2023-08-17T06:34:29;10;9;
42410;PMS5003;28056;51.112;0.984;2023-08-17T06:36:57;14;11;
42410;PMS5003;28056;51.112;0.984;2023-08-17T06:39:25;10;9;
42410;PMS5003;28056;51.112;0.984;2023-08-17T06:41:53;9;9;
42410;PMS5003;28056;51.112;0.984;2023-08-17T06:44:20;8;8;
42410;PMS5003;28056;51.112;0.984;2023-08-17T06:46:48;8;8;
42410;PMS5003;28056;51.112;0.984;2023-08-17T06:49:15;8;8;
42410;PMS5003;28056;51.112;0.984;2023-08-17T06:51:43;9;9;
42410;PMS5003;28056;51.112;0.984;2023-08-17T06:54:10;7;7;
42410;PMS5003;28056;51.112;0.984;2023-08-17T06:56:43;9;7;
42410;PMS5003;28056;51.112;0.984;2023-08-17T06:59:10;10;10;
42410;PMS5003;28056;51.112;0.984;2023-08-17T07:01:38;8;7;
42410;PMS5003;28056;51.112;0.984;2023-08-17T07:04:05;8;8;
42410;PMS5003;28056;51.112;0.984;2023-08-17T07:06:34;8;8;
42410;PMS5003;28056;51.112;0.984;2023-08-17T07:09:02;8;8;
42410;PMS5003;28056;51.112;0.984;2023-08-17T07:11:29;9;6;
42410;PMS5003;28056;51.112;0.984;2023-08-17T07:13:57;9;9;
42410;PMS5003;28056;51.112;0.984;2023-08-17T07:16:24;8;8;
42410;PMS5003;28056;51.112;0.984;2023-08-17T07:18:52;11;8;
42410;PMS5003;28056;51.112;0.984;2023-08-17T07:21:19;8;7;
42410;PMS5003;28056;51.112;0.984;2023-08-17T07:23:47;12;8;
42410;PMS5003;28056;51.112;0.984;2023-08-17T07:26:16;8;7;
42410;PMS5003;28056;51.112;0.984;2023-08-17T07:28:43;9;8;
42410;PMS5003;28056;51.112;0.984;2023-08-17T07:31:11;8;8;
42410;PMS5003;28056;51.112;0.984;2023-08-17T07:33:39;10;8;
42410;PMS5003;28056;51.112;0.984;2023-08-17T07:36:06;9;8;
42410;PMS5003;28056;51.112;0.984;2023-08-17T07:38:34;7;7;
42410;PMS5003;28056;51.112;0.984;2023-08-17T07:41:01;9;8;
42410;PMS5003;28056;51.112;0.984;2023-08-17T07:43:29;7;7;
42410;PMS5003;28056;51.112;0.984;2023-08-17T07:45:57;10;7;
42410;PMS5003;28056;51.112;0.984;2023-08-17T07:48:24;7;7;
42410;PMS5003;28056;51.112;0.984;2023-08-17T07:50:52;5;5;
42410;PMS5003;28056;51.112;0.984;2023-08-17T07:53:20;6;6;
42410;PMS5003;28056;51.112;0.984;2023-08-17T07:55:48;6;4;
42410;PMS5003;28056;51.112;0.984;2023-08-17T07:58:16;7;7;
42410;PMS5003;28056;51.112;0.984;2023-08-17T08:00:43;6;6;
42410;PMS5003;28056;51.112;0.984;2023-08-17T08:03:11;8;5;
42410;PMS5003;28056;51.112;0.984;2023-08-17T08:05:38;7;7;
42410;PMS5003;28056;51.112;0.984;2023-08-17T08:08:06;8;7;
42410;PMS5003;28056;51.112;0.984;2023-08-17T08:10:34;4;4;
42410;PMS5003;28056;51.112;0.984;2023-08-17T08:13:01;8;7;
42410;PMS5003;28056;51.112;0.984;2023-08-17T08:15:29;9;6;
42410;PMS5003;28056;51.112;0.984;2023-08-17T08:17:56;11;7;
42410;PMS5003;28056;51.112;0.984;2023-08-17T08:20:24;7;5;
42410;PMS5003;28056;51.112;0.984;2023-08-17T08:22:51;8;7;
42410;PMS5003;28056;51.112;0.984;2023-08-17T08:25:19;7;4;
42410;PMS5003;28056;51.112;0.984;2023-08-17T08:27:46;6;6;
42410;PMS5003;28056;51.112;0.984;2023-08-17T08:30:14;6;5;
42410;PMS5003;28056;51.112;0.984;2023-08-17T08:32:41;6;6;
42410;PMS5003;28056;51.112;0.984;2023-08-17T08:35:09;6;5;
42410;PMS5003;28056;51.112;0.984;2023-08-17T08:37:36;4;4;
42410;PMS5003;28056;51.112;0.984;2023-08-17T08:40:05;5;5;
42410;PMS5003;28056;51.112;0.984;2023-08-17T08:42:38;5;5;
42410;PMS5003;28056;51.112;0.984;2023-08-17T08:45:06;5;5;
42410;PMS5003;28056;51.112;0.984;2023-08-17T08:47:34;7;7;
42410;PMS5003;28056;51.112;0.984;2023-08-17T08:50:04;6;4;
42410;PMS5003;28056;51.112;0.984;2023-08-17T08:52:34;6;6;
42410;PMS5003;28056;51.112;0.984;2023-08-17T08:55:05;5;4;
42410;PMS5003;28056;51.112;0.984;2023-08-17T08:57:37;7;5;
42410;PMS5003;28056;51.112;0.984;2023-08-17T09:00:06;4;4;
42410;PMS5003;28056;51.112;0.984;2023-08-17T09:02:34;11;5;
42410;PMS5003;28056;51.112;0.984;2023-08-17T09:05:04;8;6;
42410;PMS5003;28056;51.112;0.984;2023-08-17T09:07:32;4;4;
42410;PMS5003;28056;51.112;0.984;2023-08-17T09:10:01;5;5;
42410;PMS5003;28056;51.112;0.984;2023-08-17T09:12:29;3;3;
42410;PMS5003;28056;51.112;0.984;2023-08-17T09:14:56;5;5;
42410;PMS5003;28056;51.112;0.984;2023-08-17T09:17:24;4;4;
42410;PMS5003;28056;51.112;0.984;2023-08-17T09:19:52;7;6;
42410;PMS5003;28056;51.112;0.984;2023-08-17T09:22:24;4;3;
42410;PMS5003;28056;51.112;0.984;2023-08-17T09:24:52;7;4;
42410;PMS5003;28056;51.112;0.984;2023-08-17T09:27:20;3;3;
42410;PMS5003;28056;51.112;0.984;2023-08-17T09:29:48;6;4;
42410;PMS5003;28056;51.112;0.984;2023-08-17T09:32:15;4;4;
42410;PMS5003;28056;51.112;0.984;2023-08-17T09:34:43;4;4;
42410;PMS5003;28056;51.112;0.984;2023-08-17T09:37:11;5;5;
42410;PMS5003;28056;51.112;0.984;2023-08-17T09:39:39;4;4;
42410;PMS5003;28056;51.112;0.984;2023-08-17T09:42:06;3;3;
42410;PMS5003;28056;51.112;0.984;2023-08-17T09:44:34;4;4;
42410;PMS5003;28056;51.112;0.984;2023-08-17T09:47:01;5;3;
42410;PMS5003;28056;51.112;0.984;2023-08-17T09:49:30;5;4;
42410;PMS5003;28056;51.112;0.984;2023-08-17T09:51:59;3;3;
42410;PMS5003;28056;51.112;0.984;2023-08-17T09:54:27;6;3;
42410;PMS5003;28056;51.112;0.984;2023-08-17T09:56:57;6;3;
42410;PMS5003;28056;51.112;0.984;2023-08-17T09:59:25;4;4;
42410;PMS5003;28056;51.112;0.984;2023-08-17T10:01:52;5;4;
42410;PMS5003;28056;51.112;0.984;2023-08-17T10:04:20;4;4;
42410;PMS5003;28056;51.112;0.984;2023-08-17T10:06:50;4;4;
42410;PMS5003;28056;51.112;0.984;2023-08-17T10:09:24;4;3;
42410;PMS5003;28056;51.112;0.984;2023-08-17T10:11:56;5;4;
42410;PMS5003;28056;51.112;0.984;2023-08-17T10:14:29;5;5;
42410;PMS5003;28056;51.112;0.984;2023-08-17T10:17:01;4;3;
42410;PMS5003;28056;51.112;0.984;2023-08-17T10:19:35;6;4;
42410;PMS5003;28056;51.112;0.984;2023-08-17T10:22:11;3;3;
42410;PMS5003;28056;51.112;0.984;2023-08-17T10:24:42;5;5;
42410;PMS5003;28056;51.112;0.984;2023-08-17T10:27:12;2;2;
42410;PMS5003;28056;51.112;0.984;2023-08-17T10:29:40;6;5;
42410;PMS5003;28056;51.112;0.984;2023-08-17T10:32:10;4;4;
42410;PMS5003;28056;51.112;0.984;2023-08-17T10:34:38;4;4;
42410;PMS5003;28056;51.112;0.984;2023-08-17T10:37:06;4;4;
42410;PMS5003;28056;51.112;0.984;2023-08-17T10:39:35;3;3;
42410;PMS5003;28056;51.112;0.984;2023-08-17T10:42:02;5;3;
42410;PMS5003;28056;51.112;0.984;2023-08-17T10:44:38;4;4;
42410;PMS5003;28056;51.112;0.984;2023-08-17T10:47:22;5;3;
42410;PMS5003;28056;51.112;0.984;2023-08-17T10:49:51;6;3;
42410;PMS5003;28056;51.112;0.984;2023-08-17T10:52:26;3;3;
42410;PMS5003;28056;51.112;0.984;2023-08-17T10:55:00;2;2;
42410;PMS5003;28056;51.112;0.984;2023-08-17T10:55:38;2;2;
42410;PMS5003;28056;51.112;0.984;2023-08-17T10:58:06;4;4;
42410;PMS5003;28056;51.112;0.984;2023-08-17T11:00:38;4;3;
42410;PMS5003;28056;51.112;0.984;2023-08-17T11:03:07;6;4;
42410;PMS5003;28056;51.112;0.984;2023-08-17T11:05:39;3;3;
42410;PMS5003;28056;51.112;0.984;2023-08-17T11:08:09;5;3;
42410;PMS5003;28056;51.112;0.984;2023-08-17T11:10:37;4;2;
42410;PMS5003;28056;51.112;0.984;2023-08-17T11:13:04;2;2;
42410;PMS5003;28056;51.112;0.984;2023-08-17T11:15:36;5;5;
42410;PMS5003;28056;51.112;0.984;2023-08-17T11:18:04;5;4;
42410;PMS5003;28056;51.112;0.984;2023-08-17T11:20:33;3;3;
42410;PMS5003;28056;51.112;0.984;2023-08-17T11:23:02;4;4;
42410;PMS5003;28056;51.112;0.984;2023-08-17T11:25:29;2;2;
42410;PMS5003;28056;51.112;0.984;2023-08-17T11:27:59;4;4;
42410;PMS5003;28056;51.112;0.984;2023-08-17T11:30:27;2;2;
42410;PMS5003;28056;51.112;0.984;2023-08-17T11:32:55;3;2;
42410;PMS5003;28056;51.112;0.984;2023-08-17T11:35:23;8;5;
42410;PMS5003;28056;51.112;0.984;2023-08-17T11:37:50;6;4;
42410;PMS5003;28056;51.112;0.984;2023-08-17T11:40:17;9;5;
42410;PMS5003;28056;51.112;0.984;2023-08-17T11:42:45;4;4;
42410;PMS5003;28056;51.112;0.984;2023-08-17T11:45:13;3;2;
42410;PMS5003;28056;51.112;0.984;2023-08-17T11:47:40;4;2;
42410;PMS5003;28056;51.112;0.984;2023-08-17T11:50:09;2;2;
42410;PMS5003;28056;51.112;0.984;2023-08-17T11:52:38;4;2;
42410;PMS5003;28056;51.112;0.984;2023-08-17T11:55:05;4;2;
42410;PMS5003;28056;51.112;0.984;2023-08-17T11:57:34;4;2;
42410;PMS5003;28056;51.112;0.984;2023-08-17T12:00:04;2;2;
42410;PMS5003;28056;51.112;0.984;2023-08-17T12:02:32;5;3;
42410;PMS5003;28056;51.112;0.984;2023-08-17T12:05:02;2;2;
42410;PMS5003;28056;51.112;0.984;2023-08-17T12:07:30;2;2;
42410;PMS5003;28056;51.112;0.984;2023-08-17T12:09:58;4;2;
42410;PMS5003;28056;51.112;0.984;2023-08-17T12:12:25;2;2;
42410;PMS5003;28056;51.112;0.984;2023-08-17T12:14:54;2;2;
42410;PMS5003;28056;51.112;0.984;2023-08-17T12:17:21;2;2;
42410;PMS5003;28056;51.112;0.984;2023-08-17T12:19:49;2;2;
42410;PMS5003;28056;51.112;0.984;2023-08-17T12:22:17;3;2;
42410;PMS5003;28056;51.112;0.984;2023-08-17T12:24:44;3;3;
42410;PMS5003;28056;51.112;0.984;2023-08-17T12:27:11;2;2;
42410;PMS5003;28056;51.112;0.984;2023-08-17T12:29:47;4;2;
42410;PMS5003;28056;51.112;0.984;2023-08-17T12:32:15;3;3;
42410;PMS5003;28056;51.112;0.984;2023-08-17T12:34:43;2;2;
42410;PMS5003;28056;51.112;0.984;2023-08-17T12:37:11;4;4;
42410;PMS5003;28056;51.112;0.984;2023-08-17T12:39:39;3;3;
42410;PMS5003;28056;51.112;0.984;2023-08-17T12:42:06;3;3;
42410;PMS5003;28056;51.112;0.984;2023-08-17T12:44:34;3;3;
42410;PMS5003;28056;51.112;0.984;2023-08-17T12:47:01;3;3;
42410;PMS5003;28056;51.112;0.984;2023-08-17T12:49:29;3;3;
42410;PMS5003;28056;51.112;0.984;2023-08-17T12:51:56;4;3;
42410;PMS5003;28056;51.112;0.984;2023-08-17T12:54:24;3;3;
42410;PMS5003;28056;51.112;0.984;2023-08-17T12:56:51;1;1;
42410;PMS5003;28056;51.112;0.984;2023-08-17T12:59:18;2;2;
42410;PMS5003;28056;51.112;0.984;2023-08-17T13:01:46;2;2;
42410;PMS5003;28056;51.112;0.984;2023-08-17T13:04:13;2;2;
42410;PMS5003;28056;51.112;0.984;2023-08-17T13:06:40;1;1;
42410;PMS5003;28056;51.112;0.984;2023-08-17T13:09:08;1;1;
42410;PMS5003;28056;51.112;0.984;2023-08-17T13:11:35;1;1;
42410;PMS5003;28056;51.112;0.984;2023-08-17T13:14:02;0;0;
42410;PMS5003;28056;51.112;0.984;2023-08-17T13:16:30;0;0;
42410;PMS5003;28056;51.112;0.984;2023-08-17T13:18:58;2;2;
42410;PMS5003;28056;51.112;0.984;2023-08-17T13:21:25;1;1;
42410;PMS5003;28056;51.112;0.984;2023-08-17T13:23:52;3;2;
42410;PMS5003;28056;51.112;0.984;2023-08-17T13:26:20;1;1;
42410;PMS5003;28056;51.112;0.984;2023-08-17T13:28:48;4;4;
42410;PMS5003;28056;51.112;0.984;2023-08-17T13:31:16;1;1;
42410;PMS5003;28056;51.112;0.984;2023-08-17T13:33:43;2;2;
42410;PMS5003;28056;51.112;0.984;2023-08-17T13:36:10;2;2;
42410;PMS5003;28056;51.112;0.984;2023-08-17T13:38:37;4;3;
42410;PMS5003;28056;51.112;0.984;2023-08-17T13:41:05;1;1;
42410;PMS5003;28056;51.112;0.984;2023-08-17T13:43:32;1;1;
42410;PMS5003;28056;51.112;0.984;2023-08-17T13:45:59;4;2;
42410;PMS5003;28056;51.112;0.984;2023-08-17T13:48:26;2;2;
42410;PMS5003;28056;51.112;0.984;2023-08-17T13:50:54;2;2;
42410;PMS5003;28056;51.112;0.984;2023-08-17T13:53:21;3;3;
42410;PMS5003;28056;51.112;0.984;2023-08-17T13:55:48;2;2;
42410;PMS5003;28056;51.112;0.984;2023-08-17T13:58:15;1;1;
42410;PMS5003;28056;51.112;0.984;2023-08-17T14:00:43;2;2;
42410;PMS5003;28056;51.112;0.984;2023-08-17T14:03:10;2;1;
42410;PMS5003;28056;51.112;0.984;2023-08-17T14:05:37;3;2;
42410;PMS5003;28056;51.112;0.984;2023-08-17T14:08:05;4;3;
42410;PMS5003;28056;51.112;0.984;2023-08-17T14:10:32;2;2;
42410;PMS5003;28056;51.112;0.984;2023-08-17T14:12:59;5;2;
42410;PMS5003;28056;51.112;0.984;2023-08-17T14:15:26;4;2;
42410;PMS5003;28056;51.112;0.984;2023-08-17T14:17:54;3;3;
42410;PMS5003;28056;51.112;0.984;2023-08-17T14:20:21;5;2;
42410;PMS5003;28056;51.112;0.984;2023-08-17T14:22:48;4;4;
42410;PMS5003;28056;51.112;0.984;2023-08-17T14:25:15;3;3;
42410;PMS5003;28056;51.112;0.984;2023-08-17T14:27:43;5;4;
42410;PMS5003;28056;51.112;0.984;2023-08-17T14:30:10;2;2;
42410;PMS5003;28056;51.112;0.984;2023-08-17T14:32:39;3;3;
42410;PMS5003;28056;51.112;0.984;2023-08-17T14:35:12;6;2;
42410;PMS5003;28056;51.112;0.984;2023-08-17T14:38:01;2;2;
42410;PMS5003;28056;51.112;0.984;2023-08-17T14:40:32;2;2;
42410;PMS5003;28056;51.112;0.984;2023-08-17T14:43:07;6;3;
42410;PMS5003;28056;51.112;0.984;2023-08-17T14:45:35;3;3;
42410;PMS5003;28056;51.112;0.984;2023-08-17T14:48:05;4;2;
42410;PMS5003;28056;51.112;0.984;2023-08-17T14:50:34;2;2;
42410;PMS5003;28056;51.112;0.984;2023-08-17T14:53:03;2;2;
42410;PMS5003;28056;51.112;0.984;2023-08-17T14:55:31;4;4;
42410;PMS5003;28056;51.112;0.984;2023-08-17T14:57:59;7;4;
42410;PMS5003;28056;51.112;0.984;2023-08-17T15:00:26;4;4;
42410;PMS5003;28056;51.112;0.984;2023-08-17T15:02:55;4;3;
42410;PMS5003;28056;51.112;0.984;2023-08-17T15:05:23;3;2;
42410;PMS5003;28056;51.112;0.984;2023-08-17T15:07:52;2;2;
42410;PMS5003;28056;51.112;0.984;2023-08-17T15:10:20;3;2;
42410;PMS5003;28056;51.112;0.984;2023-08-17T15:12:48;3;1;
42410;PMS5003;28056;51.112;0.984;2023-08-17T15:15:15;2;2;
42410;PMS5003;28056;51.112;0.984;2023-08-17T15:17:42;6;2;
42410;PMS5003;28056;51.112;0.984;2023-08-17T15:20:10;1;1;
42410;PMS5003;28056;51.112;0.984;2023-08-17T15:22:38;4;4;
42410;PMS5003;28056;51.112;0.984;2023-08-17T15:25:05;3;3;
42410;PMS5003;28056;51.112;0.984;2023-08-17T15:27:34;2;2;
42410;PMS5003;28056;51.112;0.984;2023-08-17T15:30:01;4;3;
42410;PMS5003;28056;51.112;0.984;2023-08-17T15:32:29;2;2;
42410;PMS5003;28056;51.112;0.984;2023-08-17T15:34:57;3;3;
42410;PMS5003;28056;51.112;0.984;2023-08-17T15:37:24;3;3;
42410;PMS5003;28056;51.112;0.984;2023-08-17T15:39:52;2;2;
42410;PMS5003;28056;51.112;0.984;2023-08-17T15:42:19;3;1;
42410;PMS5003;28056;51.112;0.984;2023-08-17T15:44:46;4;2;
42410;PMS5003;28056;51.112;0.984;2023-08-17T15:47:14;4;4;
42410;PMS5003;28056;51.112;0.984;2023-08-17T15:49:41;5;3;
42410;PMS5003;28056;51.112;0.984;2023-08-17T15:52:09;3;3;
42410;PMS5003;28056;51.112;0.984;2023-08-17T15:54:37;3;3;
42410;PMS5003;28056;51.112;0.984;2023-08-17T15:57:05;6;4;
42410;PMS5003;28056;51.112;0.984;2023-08-17T15:59:32;4;1;
42410;PMS5003;28056;51.112;0.984;2023-08-17T16:01:59;4;4;
42410;PMS5003;28056;51.112;0.984;2023-08-17T16:04:27;3;3;
42410;PMS5003;28056;51.112;0.984;2023-08-17T16:06:54;3;3;
42410;PMS5003;28056;51.112;0.984;2023-08-17T16:09:22;3;3;
42410;PMS5003;28056;51.112;0.984;2023-08-17T16:11:49;4;4;
42410;PMS5003;28056;51.112;0.984;2023-08-17T16:14:17;6;6;
42410;PMS5003;28056;51.112;0.984;2023-08-17T16:16:44;4;4;
42410;PMS5003;28056;51.112;0.984;2023-08-17T16:19:11;5;3;
42410;PMS5003;28056;51.112;0.984;2023-08-17T16:21:39;6;4;
42410;PMS5003;28056;51.112;0.984;2023-08-17T16:24:06;7;5;
42410;PMS5003;28056;51.112;0.984;2023-08-17T16:26:34;4;4;
42410;PMS5003;28056;51.112;0.984;2023-08-17T16:29:01;5;5;
42410;PMS5003;28056;51.112;0.984;2023-08-17T16:31:31;6;3;
42410;PMS5003;28056;51.112;0.984;2023-08-17T16:34:00;4;4;
42410;PMS5003;28056;51.112;0.984;2023-08-17T16:36:28;7;5;
42410;PMS5003;28056;51.112;0.984;2023-08-17T16:38:55;6;6;
42410;PMS5003;28056;51.112;0.984;2023-08-17T16:41:22;5;5;
42410;PMS5003;28056;51.112;0.984;2023-08-17T16:43:50;8;8;
42410;PMS5003;28056;51.112;0.984;2023-08-17T16:46:17;7;6;